KMTO/MTO METAR and TAF weather

Enter ICAO airport designator
Station Type Date Time Source
KMTO METAR 2020/01/23 14:53 UTC NOAA

KMTO 231453Z AUTO 17007KT 10SM OVC018 01/M02 A3007 RMK AO2 RAE1357B18E47UPB1357E18B47E49 SLP191 P0000 60000 T00061017 52005


Station Type Date Time Source
KMTO Decoded METAR 2020/01/23 14:53 UTC NOAA

MATTOON/CHARLESTON COLES CO, IL, United States (KMTO) 39-28N 88-16W 214M
Jan 23, 2020 - 09:53 AM EST / 2020.01.23 1453 UTC
Wind: from the S (170 degrees) at 8 MPH (7 KT):0
Visibility: 10 mile(s):0
Sky conditions: overcast
Precipitation last hour: A trace
Temperature: 33.1 F (0.6 C)
Windchill: 26 F (-3 C):1
Dew Point: 28.9 F (-1.7 C)
Relative Humidity: 84%
Pressure (altimeter): 30.07 in. Hg (1018 hPa)
Pressure tendency: 0.01 inches (0.5 hPa) higher than three hours ago
ob: KMTO 231453Z AUTO 17007KT 10SM OVC018 01/M02 A3007 RMK AO2 RAE1357B18E47UPB1357E18B47E49 SLP191 P0000 60000 T00061017 52005
cycle: 15

Station Type Date Time Source
KMTO TAF UTC NOAA

Error!

Example: see airport list